Airfield :
LOGIN :

Register | Disclaimer

   EN    FR    IT 

 










Legend :    VFR   Marginal VFR   IFR   Intensive IFR   Very Intensive IFR
Visi :
Ceiling :
>= 8 km
>= 3000ft
5 to 8 km
1000 to 3000 ft
1500m to 5 km
500 to 1000 ft
800 to 1500m
200 to 500 ft
< 800m
< 200 ft
Symbols :   Thunderstorms  Fog  Heavy snow  Heavy precipitations  Wind > 20 kt
SIGMETs :     Misc.  Thunderstorms  Icing  Turbulence  Mountain Waves  Volcanic Ashes






- Airport Elevation : 1161 ft
- IATA code : RJL


LELO - Logroño-Agoncillo

CURRENT METAR :
  • 291130Z 27013KT 230V310 9999 FEW030 SCT050 17/07 Q1007

EXPIRED METARs :
  • 291100Z 27014KT 240V300 9999 FEW030 BKN055 17/07 Q1007
  • 291030Z 27017KT 250V310 9999 FEW035 SCT047 17/08 Q1007
  • 291000Z 27012KT 9999 FEW035 SCT045 17/07 Q1007
  • 290930Z 27012KT 9999 FEW035 BKN060 16/07 Q1007
  • 290900Z 28013KT 9999 FEW035 BKN060 16/07 Q1007

TAF TAF LELO
Valid from the 29 at 09:00 until the 30 at 09:00 UTC


290800Z 2909/3009 28010KT 9999 SCT040 TX19/2915Z TN09/3006Z
PROB30
TEMPO 2909/2915 RA BKN014
PROB40
TEMPO 2912/2916 28018G28KT



MET'MAP, your aeronautical weather chart ! - Copyright ORBIFLY December 2007 - Disclaimer

ORBIFLY MET'MAP TEAM :

Programming & Development : Alexandra Zaïnal
Original concept : Baudouin d'Aumeries
Technical & hardware support : Manuel Goepfert
Assistance : Marc-Olivier Méhu




SOURCES & CREDITS :

   NOAA